Time;durP1;ratioP1;P1;durP2;ratioP2;P2;SDS_P1;SDS_P2;PMS_P1;PMS_P2;Temp;Humidity;BMP_temperature;BMP_pressure;BME280_temperature;BME280_humidity;BME280_pressure;Samples;Min_cycle;Max_cycle;Signal;HPM_P1;HPM_P2
2022/11/20 00:00:51;;;;;;;22.85;10.82;;;;;;;-3.38;100.00;101248.03;5050268;28;20041;-66
2022/11/20 00:03:17;;;;;;;26.65;13.00;;;;;;;-3.35;100.00;101250.44;5050448;28;20059;-66
2022/11/20 00:05:42;;;;;;;27.67;15.27;;;;;;;-3.33;100.00;101248.56;5050397;28;20445;-66
2022/11/20 00:08:08;;;;;;;33.10;16.90;;;;;;;-3.32;100.00;101246.78;5050168;28;20048;-66
2022/11/20 00:10:36;;;;;;;27.63;14.80;;;;;;;-3.32;100.00;101244.19;5050262;28;20132;-66
2022/11/20 00:13:01;;;;;;;28.02;14.65;;;;;;;-3.33;100.00;101245.97;5050165;28;20025;-66
2022/11/20 00:15:27;;;;;;;26.45;13.02;;;;;;;-3.34;100.00;101251.25;5050056;28;20032;-66
2022/11/20 00:17:52;;;;;;;26.45;14.05;;;;;;;-3.34;100.00;101244.28;5050261;28;20112;-66
2022/11/20 00:20:17;;;;;;;31.00;15.70;;;;;;;-3.35;100.00;101241.78;5050076;28;20036;-66
2022/11/20 00:22:43;;;;;;;24.23;12.20;;;;;;;-3.37;100.00;101236.66;5050033;28;20033;-66
2022/11/20 00:25:08;;;;;;;26.38;14.00;;;;;;;-3.33;100.00;101234.66;5050061;28;20044;-66
2022/11/20 00:27:34;;;;;;;26.90;13.38;;;;;;;-3.35;100.00;101232.19;5050103;28;20091;-66
2022/11/20 00:29:59;;;;;;;26.83;14.30;;;;;;;-3.34;100.00;101233.00;5049751;28;20384;-66
2022/11/20 00:32:24;;;;;;;25.98;13.02;;;;;;;-3.34;100.00;101239.06;5049680;28;20029;-66
2022/11/20 00:34:49;;;;;;;27.92;13.32;;;;;;;-3.33;100.00;101229.47;5049586;28;20087;-66
2022/11/20 00:37:15;;;;;;;26.80;12.75;;;;;;;-3.38;100.00;101221.94;5049666;28;20033;-66
2022/11/20 00:39:40;;;;;;;22.98;12.88;;;;;;;-3.34;100.00;101226.00;5049585;28;20028;-66
2022/11/20 00:42:06;;;;;;;24.33;13.27;;;;;;;-3.33;100.00;101224.25;5049836;28;20068;-66
2022/11/20 00:44:31;;;;;;;26.38;12.90;;;;;;;-3.38;100.00;101221.09;5049809;28;20032;-66
2022/11/20 00:46:56;;;;;;;32.67;13.82;;;;;;;-3.28;100.00;101239.59;5047935;28;20036;-66
2022/11/20 00:49:22;;;;;;;26.95;13.02;;;;;;;-3.33;100.00;101221.63;5049681;28;20029;-66
2022/11/20 00:51:47;;;;;;;29.20;15.20;;;;;;;-3.27;100.00;101226.47;5049585;28;20033;-66
2022/11/20 00:54:12;;;;;;;25.52;13.80;;;;;;;-3.28;100.00;101221.34;5049807;28;20049;-66
2022/11/20 00:56:38;;;;;;;32.55;13.73;;;;;;;-3.31;100.00;101214.56;5049555;28;20542;-66
2022/11/20 00:59:04;;;;;;;25.50;12.93;;;;;;;-3.26;100.00;101225.53;5049132;28;20147;-66
2022/11/20 01:01:30;;;;;;;23.67;12.93;;;;;;;-3.24;100.00;101215.00;5049469;28;20175;-66
2022/11/20 01:03:57;;;;;;;23.33;13.63;;;;;;;-3.24;100.00;101215.84;5049569;28;20116;-66
2022/11/20 01:06:28;;;;;;;23.63;11.75;;;;;;;-3.21;100.00;101217.41;5049393;28;20029;-66
2022/11/20 01:08:57;;;;;;;22.23;11.80;;;;;;;-3.19;100.00;101223.38;5049320;28;20434;-66
2022/11/20 01:11:28;;;;;;;25.42;12.63;;;;;;;-3.20;100.00;101230.34;5049159;28;20020;-66
2022/11/20 01:13:55;;;;;;;26.30;12.70;;;;;;;-3.27;100.00;101229.09;5049274;28;20480;-66
2022/11/20 01:16:42;;;;;;;24.90;12.63;;;;;;;-3.24;100.00;101241.09;5049263;28;20040;-66
2022/11/20 01:19:12;;;;;;;25.50;13.18;;;;;;;-3.28;100.00;101237.00;5049341;28;20124;-66
2022/11/20 01:21:40;;;;;;;24.02;12.38;;;;;;;-3.31;100.00;101233.63;5049391;28;20048;-66
2022/11/20 01:24:07;;;;;;;27.15;14.02;;;;;;;-3.38;100.00;101232.38;5049113;28;20025;-66
2022/11/20 01:26:35;;;;;;;24.67;12.88;;;;;;;-3.37;100.00;101238.44;5048947;28;20033;-66
2022/11/20 01:29:01;;;;;;;25.40;12.63;;;;;;;-3.39;100.00;101235.91;5048910;28;20024;-66
2022/11/20 01:31:34;;;;;;;22.70;11.77;;;;;;;-3.46;100.00;101229.38;5049204;28;20064;-66
2022/11/20 01:34:06;;;;;;;21.83;11.88;;;;;;;-3.45;100.00;101230.25;5049125;28;20037;-68
2022/11/20 01:36:32;;;;;;;23.98;12.20;;;;;;;-3.49;100.00;101229.59;5049407;28;20106;-68
2022/11/20 01:39:01;;;;;;;23.85;10.63;;;;;;;-3.52;100.00;101225.41;5053240;28;20112;-68
2022/11/20 01:44:16;;;;;;;28.33;12.77;;;;;;;-3.56;100.00;101217.91;5052755;28;20064;-69
2022/11/20 01:46:55;;;;;;;24.38;12.82;;;;;;;-3.65;100.00;101227.09;5052827;28;20396;-69
2022/11/20 01:49:34;;;;;;;23.48;11.13;;;;;;;-3.63;100.00;101232.25;5052847;28;20041;-68
2022/11/20 01:52:11;;;;;;;23.40;11.93;;;;;;;-3.65;100.00;101231.50;5053019;28;20028;-69
2022/11/20 01:54:44;;;;;;;25.35;11.63;;;;;;;-3.68;100.00;101224.69;5052904;28;20037;-69
2022/11/20 01:57:11;;;;;;;24.23;11.20;;;;;;;-3.69;100.00;101219.56;5053461;28;20028;-69
2022/11/20 01:59:51;;;;;;;22.48;12.70;;;;;;;-3.68;100.00;101234.28;5059426;28;20056;-69
2022/11/20 02:02:16;;;;;;;24.17;11.88;;;;;;;-3.75;100.00;101231.22;5052488;28;20082;-69
2022/11/20 02:04:42;;;;;;;22.73;12.15;;;;;;;-3.80;100.00;101222.84;5052580;28;20029;-69
2022/11/20 02:07:07;;;;;;;24.10;11.65;;;;;;;-3.82;100.00;101222.13;5052337;28;20033;-69
2022/11/20 02:09:33;;;;;;;25.20;13.38;;;;;;;-3.89;100.00;101218.22;5052598;28;20029;-69
2022/11/20 02:11:59;;;;;;;23.60;13.32;;;;;;;-3.85;100.00;101220.53;5052163;28;20044;-69
2022/11/20 02:14:25;;;;;;;23.17;11.88;;;;;;;-3.86;100.00;101226.66;5052505;28;20032;-69
2022/11/20 02:16:51;;;;;;;26.90;13.15;;;;;;;-3.83;100.00;101223.03;5051032;28;20373;-68
2022/11/20 02:19:27;;;;;;;23.40;12.40;;;;;;;-3.81;100.00;101229.84;5052392;28;20025;-68
2022/11/20 02:22:11;;;;;;;23.73;11.13;;;;;;;-3.80;100.00;101228.91;5052102;28;20024;-69
2022/11/20 02:24:36;;;;;;;26.70;13.48;;;;;;;-3.85;100.00;101222.28;5052003;28;20495;-69
2022/11/20 02:27:06;;;;;;;23.50;11.90;;;;;;;-3.92;100.00;101215.81;5052136;28;20033;-68
2022/11/20 02:29:52;;;;;;;25.70;12.55;;;;;;;-3.94;100.00;101215.06;5052081;28;20025;-68
2022/11/20 02:32:19;;;;;;;22.73;10.98;;;;;;;-3.99;100.00;101207.50;5052245;28;20384;-68
2022/11/20 02:34:44;;;;;;;27.77;13.85;;;;;;;-4.07;100.00;101207.16;5052100;28;20056;-68
2022/11/20 02:37:10;;;;;;;23.83;12.30;;;;;;;-4.06;100.00;101211.41;5052011;28;20060;-68
2022/11/20 02:39:35;;;;;;;22.67;12.30;;;;;;;-4.06;100.00;101207.06;5052323;28;20895;-68
2022/11/20 02:42:02;;;;;;;25.08;12.10;;;;;;;-4.05;100.00;101203.53;5050730;28;20037;-68
2022/11/20 02:44:27;;;;;;;22.17;11.82;;;;;;;-4.07;100.00;101192.34;5051983;28;20036;-68
2022/11/20 02:46:52;;;;;;;24.42;12.35;;;;;;;-4.07;100.00;101205.38;5051864;28;20447;-69
2022/11/20 02:49:18;;;;;;;26.25;13.32;;;;;;;-4.04;100.00;101212.16;5050621;28;20025;-69
2022/11/20 02:51:43;;;;;;;24.50;11.60;;;;;;;-4.12;100.00;101204.81;5051696;28;20057;-69
2022/11/20 02:54:08;;;;;;;26.20;11.75;;;;;;;-4.01;100.00;101214.56;5051730;28;20120;-69
2022/11/20 02:56:34;;;;;;;23.42;12.23;;;;;;;-4.05;100.00;101206.13;5051693;28;20071;-68
2022/11/20 02:58:59;;;;;;;25.92;12.10;;;;;;;-4.03;100.00;101211.25;5051399;28;20033;-68
2022/11/20 03:01:25;;;;;;;26.73;12.02;;;;;;;-4.05;100.00;101215.72;5051688;28;20069;-68
2022/11/20 03:03:50;;;;;;;27.92;13.07;;;;;;;-4.09;100.00;101211.59;5051308;28;20029;-68
2022/11/20 03:06:16;;;;;;;24.20;12.20;;;;;;;-4.13;100.00;101210.97;5051592;28;20036;-68
2022/11/20 03:08:42;;;;;;;23.05;13.32;;;;;;;-4.20;100.00;101207.88;5051335;28;20118;-68
2022/11/20 03:11:07;;;;;;;26.40;13.73;;;;;;;-4.21;100.00;101202.78;5051459;28;20060;-68
2022/11/20 03:13:34;;;;;;;26.88;12.18;;;;;;;-4.20;100.00;101207.88;5051395;28;20025;-68
2022/11/20 03:16:11;;;;;;;25.52;13.13;;;;;;;-4.25;100.00;101196.91;5051300;28;20041;-68
2022/11/20 03:18:37;;;;;;;25.52;13.00;;;;;;;-4.20;100.00;101207.06;5051292;28;20119;-68
2022/11/20 03:21:03;;;;;;;25.70;12.23;;;;;;;-4.22;100.00;101203.69;5051159;28;20104;-68
2022/11/20 03:23:30;;;;;;;26.45;15.43;;;;;;;-4.21;100.00;101198.41;5051261;28;20064;-68
2022/11/20 03:25:56;;;;;;;27.95;12.90;;;;;;;-4.21;100.00;101194.97;5051144;28;20112;-68
2022/11/20 03:28:21;;;;;;;28.50;13.75;;;;;;;-4.18;100.00;101194.78;5049847;28;20120;-68
2022/11/20 03:30:47;;;;;;;23.65;12.70;;;;;;;-4.20;100.00;101187.03;5049871;28;20029;-68
2022/11/20 03:33:12;;;;;;;24.88;12.63;;;;;;;-4.15;100.00;101194.59;5050828;28;20043;-68
2022/11/20 03:35:38;;;;;;;28.15;14.27;;;;;;;-4.08;100.00;101187.25;5050860;28;20388;-68
2022/11/20 03:38:03;;;;;;;24.65;12.20;;;;;;;-4.02;100.00;101186.88;5050782;28;20497;-68
2022/11/20 03:40:28;;;;;;;25.02;12.50;;;;;;;-3.95;100.00;101177.75;5049606;28;20033;-68
2022/11/20 03:42:54;;;;;;;23.95;12.60;;;;;;;-3.90;100.00;101169.63;5050795;28;20419;-69
2022/11/20 03:45:19;;;;;;;26.88;13.90;;;;;;;-3.92;100.00;101167.13;5050778;28;20553;-68
2022/11/20 03:47:45;;;;;;;26.38;13.60;;;;;;;-3.95;100.00;101174.31;5050594;28;20029;-68
2022/11/20 03:50:13;;;;;;;24.42;12.48;;;;;;;-4.01;100.00;101168.56;5050534;28;20036;-68
2022/11/20 03:52:39;;;;;;;27.73;13.05;;;;;;;-4.06;100.00;101168.00;5048821;28;20147;-68
2022/11/20 03:55:05;;;;;;;28.13;13.23;;;;;;;-4.06;100.00;101167.13;5050614;28;20111;-68
2022/11/20 03:57:30;;;;;;;22.33;12.63;;;;;;;-4.08;100.00;101164.66;5050417;28;20029;-68
2022/11/20 03:59:56;;;;;;;25.98;12.63;;;;;;;-4.13;100.00;101166.69;5049966;28;20136;-68
2022/11/20 04:02:21;;;;;;;25.95;14.98;;;;;;;-4.13;100.00;101174.50;5050424;28;20127;-68
2022/11/20 04:04:47;;;;;;;24.55;13.07;;;;;;;-4.12;100.00;101173.56;5050217;28;20040;-68
2022/11/20 04:07:12;;;;;;;26.80;13.52;;;;;;;-4.13;100.00;101166.69;5048744;28;20476;-68
2022/11/20 04:09:37;;;;;;;24.60;12.70;;;;;;;-4.16;100.00;101150.44;5050059;28;20029;-68
2022/11/20 04:12:03;;;;;;;25.60;12.88;;;;;;;-4.12;100.00;101162.31;5048834;28;20059;-68
2022/11/20 04:14:28;;;;;;;21.77;12.70;;;;;;;-4.15;100.00;101152.91;5050163;28;20029;-68
2022/11/20 04:16:53;;;;;;;26.38;12.82;;;;;;;-4.19;100.00;101152.28;5050846;28;20476;-68
2022/11/20 04:19:19;;;;;;;25.02;12.88;;;;;;;-4.19;100.00;101161.88;5050024;28;20484;-68
2022/11/20 04:21:44;;;;;;;21.33;11.35;;;;;;;-4.24;100.00;101150.91;5050091;28;20035;-68
2022/11/20 04:24:10;;;;;;;24.45;12.57;;;;;;;-4.23;100.00;101160.38;5048829;28;20067;-68
2022/11/20 04:26:37;;;;;;;24.33;13.73;;;;;;;-4.25;100.00;101162.22;5049618;28;20020;-68
2022/11/20 04:29:03;;;;;;;26.63;13.88;;;;;;;-4.32;100.00;101148.75;5048628;28;20037;-68
2022/11/20 04:31:32;;;;;;;24.83;13.52;;;;;;;-4.31;100.00;101152.19;5049820;28;20473;-68
2022/11/20 04:34:05;;;;;;;26.50;13.40;;;;;;;-4.26;100.00;101155.34;5049771;28;20025;-68
2022/11/20 04:36:31;;;;;;;23.17;11.48;;;;;;;-4.26;100.00;101157.97;5049853;28;20028;-68
2022/11/20 04:38:59;;;;;;;24.75;13.73;;;;;;;-4.29;100.00;101148.56;5049990;28;20499;-68
2022/11/20 04:41:27;;;;;;;22.50;12.50;;;;;;;-4.25;100.00;101141.41;5049878;28;20039;-68
2022/11/20 04:43:58;;;;;;;23.45;11.85;;;;;;;-4.27;100.00;101140.66;5049660;28;20090;-68
2022/11/20 04:46:25;;;;;;;24.25;13.77;;;;;;;-4.31;100.00;101137.41;5049854;28;20028;-68
2022/11/20 04:48:51;;;;;;;24.83;13.80;;;;;;;-4.31;100.00;101147.00;5049727;28;20037;-68
2022/11/20 04:51:16;;;;;;;25.33;12.80;;;;;;;-4.35;100.00;101141.09;5049748;28;20021;-68
2022/11/20 04:53:42;;;;;;;26.45;13.32;;;;;;;-4.38;100.00;101140.47;5049661;28;20120;-68
2022/11/20 04:56:09;;;;;;;24.42;13.75;;;;;;;-4.42;100.00;101135.47;5049572;28;20116;-68
2022/11/20 04:58:35;;;;;;;29.85;14.43;;;;;;;-4.35;100.00;101135.06;5049435;28;20025;-68
2022/11/20 05:01:10;;;;;;;22.58;11.77;;;;;;;-4.35;100.00;101146.31;5049339;28;20098;-68
2022/11/20 05:03:36;;;;;;;27.45;13.13;;;;;;;-4.37;100.00;101144.75;5049311;28;20129;-68
2022/11/20 05:06:03;;;;;;;23.83;12.30;;;;;;;-4.42;100.00;101135.47;5049359;28;20480;-68
2022/11/20 05:08:29;;;;;;;24.30;12.18;;;;;;;-4.46;100.00;101136.56;5049079;28;20078;-68
2022/11/20 05:11:03;;;;;;;24.42;13.73;;;;;;;-4.46;100.00;101138.34;5049075;28;20024;-68
2022/11/20 05:13:28;;;;;;;26.75;13.77;;;;;;;-4.49;100.00;101126.34;5049029;28;20040;-68
2022/11/20 05:15:54;;;;;;;24.98;14.23;;;;;;;-4.47;100.00;101132.28;5049492;28;20497;-68
2022/11/20 05:18:19;;;;;;;27.52;14.38;;;;;;;-4.45;100.00;101134.81;5049312;28;20033;-68
2022/11/20 05:20:44;;;;;;;29.42;13.45;;;;;;;-4.47;100.00;101127.09;5049437;28;20028;-68
2022/11/20 05:23:10;;;;;;;25.98;13.68;;;;;;;-4.59;100.00;101100.97;5049158;28;20071;-68
2022/11/20 05:25:35;;;;;;;25.95;15.23;;;;;;;-4.58;100.00;101103.50;5049152;28;20025;-68
2022/11/20 05:28:00;;;;;;;26.02;13.75;;;;;;;-4.43;100.00;101123.38;5049276;28;20408;-68
2022/11/20 05:30:26;;;;;;;23.48;12.40;;;;;;;-4.46;100.00;101118.34;5049132;28;20025;-68
2022/11/20 05:32:51;;;;;;;26.83;14.05;;;;;;;-4.37;100.00;101116.13;5049247;28;20036;-68
2022/11/20 05:35:16;;;;;;;26.13;14.25;;;;;;;-4.44;100.00;101106.06;5049312;28;20079;-68
2022/11/20 05:37:42;;;;;;;24.98;12.90;;;;;;;-4.32;100.00;101125.31;5049131;28;20064;-68
2022/11/20 05:40:08;;;;;;;26.23;13.40;;;;;;;-4.31;100.00;101126.16;5049127;28;20097;-68
2022/11/20 05:42:33;;;;;;;24.52;15.35;;;;;;;-4.31;100.00;101115.75;5049191;28;20075;-68
2022/11/20 05:45:01;;;;;;;25.20;11.07;;;;;;;-4.29;100.00;101116.50;5047798;28;20060;-68
2022/11/20 05:47:28;;;;;;;23.13;11.82;;;;;;;-4.24;100.00;101106.63;5047640;28;20013;-68
2022/11/20 05:49:53;;;;;;;22.00;11.82;;;;;;;-4.30;100.00;101100.00;5049140;28;20041;-68
2022/11/20 05:52:19;;;;;;;22.08;11.75;;;;;;;-4.19;100.00;101121.03;5049168;28;20457;-68
2022/11/20 05:54:44;;;;;;;24.35;13.10;;;;;;;-4.11;100.00;101130.13;5048987;28;20110;-68
2022/11/20 05:57:09;;;;;;;22.95;12.93;;;;;;;-4.08;100.00;101119.53;5048916;28;20025;-68
2022/11/20 05:59:35;;;;;;;26.13;13.55;;;;;;;-4.08;100.00;101116.94;5047352;28;20045;-68
2022/11/20 06:02:00;;;;;;;24.50;13.35;;;;;;;-4.01;100.00;101113.84;5049000;28;20036;-68
2022/11/20 06:04:26;;;;;;;26.88;14.18;;;;;;;-3.90;100.00;101130.53;5048960;28;20025;-68
2022/11/20 06:06:51;;;;;;;22.77;11.70;;;;;;;-3.84;100.00;101132.78;5048640;28;20114;-68
2022/11/20 06:09:16;;;;;;;27.25;13.35;;;;;;;-3.76;100.00;101136.56;5049031;28;20087;-68
2022/11/20 06:11:41;;;;;;;26.65;12.88;;;;;;;-3.68;100.00;101141.28;5048509;28;20036;-68
2022/11/20 06:14:07;;;;;;;26.77;14.10;;;;;;;-3.64;100.00;101145.41;5048748;28;20033;-68
2022/11/20 06:16:32;;;;;;;24.10;12.80;;;;;;;-3.66;100.00;101130.78;5047419;28;20036;-68
2022/11/20 06:18:57;;;;;;;24.02;11.27;;;;;;;-3.55;100.00;101142.19;5047567;28;20045;-68
2022/11/20 06:21:24;;;;;;;23.73;11.82;;;;;;;-3.52;100.00;101141.97;5048721;28;20064;-68
2022/11/20 06:23:50;;;;;;;26.88;13.55;;;;;;;-3.49;100.00;101140.94;5049442;28;20028;-68
2022/11/20 06:26:22;;;;;;;25.17;13.15;;;;;;;-3.47;100.00;101130.44;5052201;28;20037;-68
2022/11/20 06:28:47;;;;;;;24.08;12.85;;;;;;;-3.33;100.00;101151.22;5050951;28;20127;-68
2022/11/20 06:31:15;;;;;;;27.88;15.55;;;;;;;-3.24;100.00;101149.81;5052010;28;20111;-68
2022/11/20 06:33:42;;;;;;;28.50;14.27;;;;;;;-3.16;100.00;101144.91;5052531;28;20120;-68
2022/11/20 06:36:09;;;;;;;26.27;14.05;;;;;;;-3.15;100.00;101134.38;5052296;28;20036;-68
2022/11/20 06:38:35;;;;;;;25.23;13.05;;;;;;;-3.10;100.00;101141.91;5051960;28;20439;-68
2022/11/20 06:41:00;;;;;;;23.73;11.90;;;;;;;-3.05;100.00;101137.22;5052075;28;20028;-68
2022/11/20 06:43:26;;;;;;;31.02;14.05;;;;;;;-3.03;100.00;101132.75;5052051;28;20036;-68
2022/11/20 06:45:53;;;;;;;21.23;11.77;;;;;;;-2.97;100.00;101139.31;5051891;28;20029;-68
2022/11/20 06:48:18;;;;;;;28.20;16.80;;;;;;;-2.99;100.00;101131.56;5051948;28;20535;-68
2022/11/20 06:50:43;;;;;;;25.58;12.32;;;;;;;-2.90;100.00;101130.16;5051639;28;20033;-68
2022/11/20 06:53:09;;;;;;;26.85;15.20;;;;;;;-2.83;100.00;101139.22;5051741;28;20114;-68
2022/11/20 06:55:34;;;;;;;26.42;12.82;;;;;;;-2.79;100.00;101135.47;5051894;28;20029;-69
2022/11/20 06:57:59;;;;;;;23.48;13.82;;;;;;;-2.72;100.00;101131.53;5051805;28;20060;-68
2022/11/20 07:00:25;;;;;;;23.55;11.80;;;;;;;-2.72;100.00;101115.84;5051113;28;20135;-68
2022/11/20 07:02:50;;;;;;;25.60;11.88;;;;;;;-2.67;100.00;101112.94;5051573;28;20155;-68
2022/11/20 07:05:17;;;;;;;25.83;13.07;;;;;;;-2.68;100.00;101112.09;5051687;28;20085;-68
2022/11/20 07:07:42;;;;;;;30.65;15.18;;;;;;;-2.57;100.00;101134.84;5051684;28;20040;-68
2022/11/20 07:10:08;;;;;;;29.08;15.02;;;;;;;-2.55;100.00;101122.53;5051489;28;20384;-68
2022/11/20 07:12:34;;;;;;;25.58;13.40;;;;;;;-2.57;100.00;101106.13;5051245;28;20037;-68
2022/11/20 07:14:59;;;;;;;26.95;14.52;;;;;;;-2.50;100.00;101110.00;5051422;28;20084;-68
2022/11/20 07:17:24;;;;;;;27.17;12.82;;;;;;;-2.47;100.00;101103.72;5051278;28;20029;-68
2022/11/20 07:19:50;;;;;;;28.75;14.90;;;;;;;-2.51;100.00;101099.66;5049802;28;20195;-68
2022/11/20 07:22:15;;;;;;;25.55;13.57;;;;;;;-2.49;100.00;101100.38;5051216;28;20105;-68
2022/11/20 07:24:40;;;;;;;27.27;14.02;;;;;;;-2.37;100.00;101109.16;5049876;28;20039;-68
2022/11/20 07:27:06;;;;;;;28.05;14.30;;;;;;;-2.32;100.00;101109.66;5051323;28;20021;-68
2022/11/20 07:29:31;;;;;;;24.05;13.10;;;;;;;-2.26;100.00;101111.84;5051073;28;20476;-68
2022/11/20 07:31:56;;;;;;;24.60;11.82;;;;;;;-2.22;100.00;101108.09;5051158;28;20033;-68
2022/11/20 07:34:22;;;;;;;24.77;13.77;;;;;;;-2.16;100.00;101112.88;5050546;28;20025;-68
2022/11/20 07:36:47;;;;;;;23.63;12.48;;;;;;;-2.09;100.00;101115.91;5033073;28;20048;-68
2022/11/20 07:39:13;;;;;;;25.05;14.75;;;;;;;-2.05;100.00;101120.78;5050964;28;20037;-68
2022/11/20 07:41:38;;;;;;;25.55;13.25;;;;;;;-2.01;100.00;101116.19;5050636;28;20029;-68
2022/11/20 07:44:04;;;;;;;26.55;15.27;;;;;;;-1.99;100.00;101111.69;5050985;28;20032;-68
2022/11/20 07:46:29;;;;;;;31.70;14.38;;;;;;;-1.94;100.00;101108.72;5050888;28;20046;-68
2022/11/20 07:48:55;;;;;;;24.42;13.88;;;;;;;-1.93;100.00;101115.66;5050862;28;20085;-68
2022/11/20 07:51:35;;;;;;;24.48;13.63;;;;;;;-1.89;100.00;101106.63;5050320;28;20131;-68
2022/11/20 07:54:00;;;;;;;23.20;11.50;;;;;;;-1.93;100.00;101102.56;5050583;28;20123;-69
2022/11/20 07:56:26;;;;;;;24.98;14.25;;;;;;;-1.89;100.00;101111.84;5050430;28;20133;-68
2022/11/20 07:58:51;;;;;;;27.17;14.95;;;;;;;-1.90;100.00;101123.25;5050583;28;20029;-68
2022/11/20 08:01:16;;;;;;;27.25;14.20;;;;;;;-1.90;100.00;101125.88;5050297;28;20056;-68
2022/11/20 08:03:42;;;;;;;27.38;14.00;;;;;;;-1.93;100.00;101113.84;5049213;28;20032;-68
2022/11/20 08:06:07;;;;;;;23.95;12.35;;;;;;;-1.85;100.00;101129.81;5050415;28;20030;-68
2022/11/20 08:08:33;;;;;;;27.50;14.93;;;;;;;-1.79;100.00;101125.94;5050372;28;20032;-68
2022/11/20 08:16:27;;;;;;;25.02;12.88;;;;;;;-1.62;100.00;101104.66;5050326;28;20044;-68
2022/11/20 08:18:52;;;;;;;24.30;13.95;;;;;;;-1.57;100.00;101105.16;5050272;28;20024;-68
2022/11/20 08:21:17;;;;;;;25.20;13.02;;;;;;;-1.51;100.00;101100.41;5048787;28;20500;-73
2022/11/20 08:23:43;;;;;;;25.10;12.95;;;;;;;-1.39;100.00;101104.72;5049954;28;20724;-68
2022/11/20 08:26:08;;;;;;;26.48;14.02;;;;;;;-1.26;100.00;101107.28;5050142;28;20439;-68
2022/11/20 08:28:33;;;;;;;25.40;14.65;;;;;;;-1.18;100.00;101099.69;5050143;28;20037;-68
2022/11/20 08:31:02;;;;;;;26.33;14.65;;;;;;;-1.07;100.00;101091.88;5048629;28;20396;-67
2022/11/20 08:33:28;;;;;;;30.38;16.27;;;;;;;-0.92;100.00;101093.34;5050013;28;20029;-67
2022/11/20 08:36:01;;;;;;;26.50;14.95;;;;;;;-0.82;100.00;101093.47;5049688;28;20033;-67
2022/11/20 08:38:27;;;;;;;29.80;16.27;;;;;;;-0.85;100.00;101085.03;5049089;28;20033;-68
2022/11/20 08:43:40;;;;;;;27.70;15.40;;;;;;;-0.82;100.00;101082.16;5049643;28;20031;-68
2022/11/20 08:46:06;;;;;;;25.55;14.02;;;;;;;-0.71;100.00;101096.13;5049145;28;20423;-68
2022/11/20 08:48:31;;;;;;;26.45;13.88;;;;;;;-0.75;100.00;101084.19;5049217;28;20025;-68
2022/11/20 08:50:59;;;;;;;24.50;13.65;;;;;;;-0.69;100.00;101096.81;5049641;28;20052;-68
2022/11/20 08:53:24;;;;;;;27.35;17.40;;;;;;;-0.74;100.00;101090.25;5045337;28;20396;-72
2022/11/20 08:55:49;;;;;;;25.17;14.13;;;;;;;-0.65;100.00;101097.44;5043504;28;20032;-72
2022/11/20 08:58:15;;;;;;;26.88;15.02;;;;;;;-0.59;100.00;101098.75;5043721;28;20029;-72
2022/11/20 09:00:40;;;;;;;30.52;17.05;;;;;;;-0.54;100.00;101092.19;5041643;28;20219;-69
2022/11/20 09:03:05;;;;;;;28.45;14.60;;;;;;;-0.48;100.00;101088.25;5041796;28;20033;-69
2022/11/20 09:05:31;;;;;;;29.90;15.45;;;;;;;-0.39;100.00;101095.41;5043252;28;20090;-69
2022/11/20 09:07:57;;;;;;;28.58;15.05;;;;;;;-0.31;100.00;101097.44;5047568;28;20017;-69
2022/11/20 09:10:22;;;;;;;30.20;16.08;;;;;;;-0.22;100.00;101096.69;5049332;28;20404;-69
2022/11/20 09:12:52;;;;;;;27.50;16.25;;;;;;;-0.20;100.00;101076.47;5049203;28;20033;-69
2022/11/20 09:15:17;;;;;;;28.95;15.13;;;;;;;-0.11;100.00;101088.81;5049088;28;20365;-68
2022/11/20 09:17:59;;;;;;;24.73;14.40;;;;;;;-0.05;100.00;101080.50;5049322;28;20059;-69
2022/11/20 09:20:26;;;;;;;25.95;15.40;;;;;;;0.01;100.00;101080.94;5049156;28;20032;-69
2022/11/20 09:22:51;;;;;;;27.55;14.38;;;;;;;0.11;100.00;101082.72;5049248;28;20071;-68
2022/11/20 09:25:17;;;;;;;28.52;17.45;;;;;;;0.15;100.00;101070.19;5049205;28;20037;-69
2022/11/20 09:27:45;;;;;;;31.30;16.92;;;;;;;0.15;100.00;101068.38;5049156;28;20025;-69
2022/11/20 09:30:11;;;;;;;29.33;17.95;;;;;;;0.22;100.00;101074.81;5049329;28;20445;-69
2022/11/20 09:32:39;;;;;;;31.35;16.15;;;;;;;0.30;100.00;101082.06;5049164;28;20064;-67
2022/11/20 09:35:04;;;;;;;27.63;15.43;;;;;;;0.31;100.00;101067.97;5047649;28;20455;-68
2022/11/20 09:37:30;;;;;;;30.05;16.25;;;;;;;0.38;100.00;101071.78;5049169;28;20146;-68
2022/11/20 09:39:55;;;;;;;28.60;17.45;;;;;;;0.37;100.00;101059.63;5048999;28;20480;-68
2022/11/20 09:42:41;;;;;;;25.27;14.07;;;;;;;0.44;100.00;101062.56;5049025;28;20033;-68
2022/11/20 09:45:25;;;;;;;27.83;15.85;;;;;;;0.49;100.00;101057.78;5049250;28;20064;-68
2022/11/20 09:48:05;;;;;;;30.27;18.73;;;;;;;0.50;100.00;101053.34;5049094;28;20108;-68
2022/11/20 09:50:32;;;;;;;30.67;18.03;;;;;;;0.44;100.00;101039.78;5049184;28;20064;-68
2022/11/20 09:53:13;;;;;;;30.90;16.85;;;;;;;0.53;100.00;101042.63;5049107;28;20048;-68
2022/11/20 09:55:39;;;;;;;28.88;15.30;;;;;;;0.56;100.00;101042.38;5049090;28;20043;-68
2022/11/20 09:58:34;;;;;;;30.23;17.05;;;;;;;0.58;100.00;101048.31;5050287;28;20040;-68
2022/11/20 10:01:09;;;;;;;29.02;17.05;;;;;;;0.53;100.00;101040.81;5052545;28;20049;-68
2022/11/20 10:03:46;;;;;;;31.38;16.30;;;;;;;0.63;100.00;101049.59;5052719;28;20037;-68
2022/11/20 10:06:17;;;;;;;28.33;16.52;;;;;;;0.69;100.00;101045.63;5052617;28;20106;-68
2022/11/20 10:08:52;;;;;;;26.15;15.25;;;;;;;0.68;100.00;101038.69;5052530;28;20032;-68
2022/11/20 10:11:28;;;;;;;30.02;16.50;;;;;;;0.75;100.00;101039.88;5052419;28;20021;-68
2022/11/20 10:14:27;;;;;;;29.13;15.43;;;;;;;0.79;100.00;101036.03;5051033;28;20025;-68
2022/11/20 10:17:01;;;;;;;27.38;16.35;;;;;;;0.83;100.00;101020.84;5052356;28;20484;-68
2022/11/20 10:19:42;;;;;;;25.80;14.13;;;;;;;0.90;100.00;101018.56;5052560;28;20029;-68
2022/11/20 10:22:17;;;;;;;27.37;15.47;;;;;;;0.98;100.00;101016.94;5052377;28;20159;-68
2022/11/20 10:24:52;;;;;;;28.48;15.50;;;;;;;1.06;100.00;101005.78;5052448;28;20375;-68
2022/11/20 10:27:32;;;;;;;27.98;15.15;;;;;;;1.09;100.00;101000.25;5052318;28;20139;-68
2022/11/20 10:30:07;;;;;;;28.05;16.25;;;;;;;1.15;100.00;100994.47;5052220;28;20068;-68
2022/11/20 10:32:46;;;;;;;28.45;15.32;;;;;;;1.19;100.00;100984.53;5052067;28;20025;-68
2022/11/20 10:35:14;;;;;;;26.98;15.73;;;;;;;1.24;100.00;100983.19;5052085;28;20424;-68
2022/11/20 10:37:51;;;;;;;26.75;14.82;;;;;;;1.25;100.00;100966.44;5050756;28;20078;-68
2022/11/20 10:40:38;;;;;;;34.40;17.55;;;;;;;1.29;100.00;100961.75;5046681;28;20407;-70
2022/11/20 10:43:17;;;;;;;34.00;18.27;;;;;;;1.36;100.00;100957.63;5045746;28;20024;-70
2022/11/20 10:46:04;;;;;;;29.55;18.55;;;;;;;1.47;100.00;100946.19;5045887;28;20091;-70
2022/11/20 10:48:31;;;;;;;29.80;16.30;;;;;;;1.39;100.00;100922.34;5045938;28;20036;-68
2022/11/20 10:51:15;;;;;;;30.15;15.95;;;;;;;1.48;100.00;100929.44;5045728;28;20503;-68
2022/11/20 10:54:09;;;;;;;29.38;15.82;;;;;;;1.61;100.00;100926.56;5046045;28;20067;-68
2022/11/20 10:56:46;;;;;;;28.30;16.45;;;;;;;1.73;100.00;100912.34;5046000;28;20391;-68
2022/11/20 10:59:30;;;;;;;28.00;14.82;;;;;;;1.82;100.00;100911.50;5045664;28;20021;-67
2022/11/20 11:01:55;;;;;;;28.00;14.80;;;;;;;1.83;100.00;100894.72;5045626;28;20087;-69
2022/11/20 11:04:29;;;;;;;27.70;15.73;;;;;;;1.93;100.00;100910.53;5045973;28;20060;-69
2022/11/20 11:07:04;;;;;;;31.52;16.48;;;;;;;2.00;100.00;100901.09;5045547;28;20477;-68
2022/11/20 11:09:38;;;;;;;37.60;17.75;;;;;;;2.13;100.00;100898.19;5044123;28;20032;-68
2022/11/20 11:12:09;;;;;;;33.45;16.65;;;;;;;2.25;100.00;100894.41;5043033;28;20154;-68
2022/11/20 11:14:50;;;;;;;31.58;16.73;;;;;;;2.25;100.00;100890.97;5045663;28;20024;-67
2022/11/20 11:17:30;;;;;;;34.77;18.47;;;;;;;2.19;100.00;100889.72;5045192;28;20029;-68